Time;durP1;ratioP1;P1;durP2;ratioP2;P2;SDS_P1;SDS_P2;PMS_P1;PMS_P2;Temp;Humidity;BMP_temperature;BMP_pressure;BME280_temperature;BME280_humidity;BME280_pressure;Samples;Min_cycle;Max_cycle;Signal;HPM_P1;HPM_P2
2022/01/14 00:01:42;;;;;;;26.20;15.77;;;;;;;-0.06;84.14;102625.63;5003825;28;20113;-22
2022/01/14 00:04:07;;;;;;;22.65;13.63;;;;;;;-0.06;83.84;102625.63;5004344;28;20034;-23
2022/01/14 00:06:32;;;;;;;22.00;14.77;;;;;;;-0.10;84.10;102616.72;5006894;28;20083;-22
2022/01/14 00:09:07;;;;;;;24.80;15.40;;;;;;;-0.11;83.80;102620.13;5006610;28;20523;-21
2022/01/14 00:12:10;;;;;;;22.65;14.95;;;;;;;-0.13;83.75;102617.41;5004292;28;20038;-22
2022/01/14 00:14:44;;;;;;;25.98;15.75;;;;;;;-0.18;83.37;102607.53;5006485;28;20041;-23
2022/01/14 00:17:12;;;;;;;22.92;15.55;;;;;;;-0.18;83.81;102623.09;5001428;28;20028;-23
2022/01/14 00:19:39;;;;;;;23.10;14.55;;;;;;;-0.23;84.17;102612.44;5004534;28;20042;-22
2022/01/14 00:22:10;;;;;;;22.10;15.57;;;;;;;-0.27;83.92;102613.00;5005906;28;20033;-22
2022/01/14 00:33:05;;;;;;;25.25;16.40;;;;;;;-0.35;84.09;102615.09;5003378;28;20131;-22
2022/01/14 00:35:31;;;;;;;27.40;14.88;;;;;;;-0.35;83.82;102615.09;5004534;28;20083;-23
2022/01/14 00:37:56;;;;;;;23.65;15.35;;;;;;;-0.36;84.02;102615.00;5004564;28;20018;-22
2022/01/14 00:40:22;;;;;;;26.95;15.68;;;;;;;-0.41;83.83;102605.22;5006562;28;20087;-23
2022/01/14 00:42:49;;;;;;;26.80;15.60;;;;;;;-0.44;83.28;102607.59;5003897;28;20022;-23
2022/01/14 00:45:14;;;;;;;28.33;16.80;;;;;;;-0.43;83.57;102600.72;5005335;28;20026;-23
2022/01/14 00:47:40;;;;;;;28.92;16.45;;;;;;;-0.49;84.01;102596.03;5012596;28;20032;-22
2022/01/14 00:50:08;;;;;;;24.95;15.23;;;;;;;-0.48;83.78;102602.09;5009127;28;20025;-23
2022/01/14 00:52:34;;;;;;;26.70;15.82;;;;;;;-0.52;83.22;102599.31;5009046;28;20168;-22
2022/01/14 00:54:59;;;;;;;28.77;16.92;;;;;;;-0.56;83.40;102593.81;5008590;28;20034;-22
2022/01/14 00:59:14;;;;;;;25.13;15.55;;;;;;;-0.55;83.42;102606.88;5008551;28;20380;-22
2022/01/14 01:00:13;;;;;;;26.80;16.05;;;;;;;-0.58;83.31;102601.47;5008306;28;20033;-22
2022/01/14 01:02:38;;;;;;;31.02;17.02;;;;;;;-0.62;83.64;102598.56;5008729;28;20060;-23
2022/01/14 01:05:04;;;;;;;28.30;15.77;;;;;;;-0.62;83.67;102606.34;5008005;28;20033;-22
2022/01/14 01:07:32;;;;;;;26.88;15.68;;;;;;;-0.65;83.38;102600.16;5005452;28;20022;-22
2022/01/14 01:09:57;;;;;;;24.88;15.25;;;;;;;-0.68;83.58;102605.13;5006052;28;20112;-22
2022/01/14 01:12:50;;;;;;;24.48;15.82;;;;;;;-0.71;83.63;102604.94;5008258;28;20109;-22
2022/01/14 01:15:17;;;;;;;25.40;14.65;;;;;;;-0.72;83.30;102610.91;5007361;28;20034;-22
2022/01/14 01:17:43;;;;;;;26.95;15.48;;;;;;;-0.73;83.80;102611.69;5005647;28;20215;-22
2022/01/14 01:20:17;;;;;;;24.92;15.68;;;;;;;-0.76;83.65;102613.19;5008450;28;20030;-22
2022/01/14 01:22:49;;;;;;;23.83;15.73;;;;;;;-0.79;83.77;102616.47;5008082;28;20053;-23
2022/01/14 01:25:37;;;;;;;;;;;;;;;-0.79;83.94;102611.28;5008904;28;20022;-22
2022/01/14 01:28:03;;;;;;;24.63;14.55;;;;;;;-0.82;83.21;102618.84;5006461;28;20013;-23
2022/01/14 01:33:02;;;;;;;24.17;16.17;;;;;;;-0.87;83.30;102609.84;5008145;28;20477;-23
2022/01/14 01:35:29;;;;;;;24.02;15.32;;;;;;;-0.89;83.63;102619.19;5008260;28;20048;-22
2022/01/14 01:37:54;;;;;;;25.25;14.45;;;;;;;-0.91;83.41;102629.44;5009521;28;20046;-23
2022/01/14 01:40:22;;;;;;;26.88;16.05;;;;;;;-0.93;83.60;102624.16;5009847;28;20022;-23
2022/01/14 01:42:55;;;;;;;23.88;16.00;;;;;;;-0.95;83.36;102630.94;5004947;28;20029;-23
2022/01/14 01:45:24;;;;;;;20.58;14.52;;;;;;;-0.97;83.50;102636.81;5007542;28;20397;-22
2022/01/14 01:47:50;;;;;;;26.17;14.77;;;;;;;-0.99;83.73;102639.28;5008449;28;20026;-22
2022/01/14 01:50:21;;;;;;;24.35;15.65;;;;;;;-1.00;83.73;102626.22;5009861;28;20574;-22
2022/01/14 01:52:46;;;;;;;23.70;15.88;;;;;;;-1.02;83.25;102620.03;5008292;28;20041;-23
2022/01/14 01:55:13;;;;;;;24.98;15.30;;;;;;;-1.06;83.38;102621.53;5005978;28;20034;-22
2022/01/14 01:57:41;;;;;;;24.75;15.00;;;;;;;-1.08;83.68;102620.50;5006731;28;20034;-23
2022/01/14 02:00:07;;;;;;;21.50;14.63;;;;;;;-1.09;84.04;102619.63;5010994;28;20029;-22
2022/01/14 02:02:35;;;;;;;25.05;14.68;;;;;;;-1.09;84.13;102626.47;5008721;28;20075;-23
2022/01/14 02:05:01;;;;;;;27.70;16.00;;;;;;;-1.13;83.65;102614.09;5008182;28;20108;-23
2022/01/14 02:07:26;;;;;;;23.85;15.68;;;;;;;-1.13;84.02;102616.69;5007941;28;20048;-23
2022/01/14 02:09:52;;;;;;;23.88;14.57;;;;;;;-1.13;84.16;102619.28;5008066;28;20060;-22
2022/01/14 02:12:19;;;;;;;26.27;15.10;;;;;;;-1.14;84.19;102614.91;5007236;28;20034;-22
2022/01/14 02:15:28;;;;;;;25.13;14.18;;;;;;;-1.17;83.61;102616.47;5010826;28;20036;-22
2022/01/14 02:17:53;;;;;;;26.50;15.57;;;;;;;-1.18;84.23;102622.47;5001737;28;20469;-22
2022/01/14 02:23:04;;;;;;;31.17;16.63;;;;;;;-1.20;84.03;102612.78;5004393;28;20072;-23
2022/01/14 02:25:30;;;;;;;24.48;15.00;;;;;;;-1.21;83.94;102611.88;5008443;28;20498;-22
2022/01/14 02:28:08;;;;;;;26.63;16.40;;;;;;;-1.26;83.67;102610.66;5005045;28;20396;-23
2022/01/14 02:30:41;;;;;;;27.65;15.82;;;;;;;-1.23;84.33;102608.25;5007616;28;20034;-22
2022/01/14 02:33:08;;;;;;;26.42;16.60;;;;;;;-1.24;83.61;102610.78;5005178;28;20049;-23
2022/01/14 02:35:34;;;;;;;33.22;17.40;;;;;;;-1.26;84.21;102607.16;5008813;28;20104;-23
2022/01/14 02:37:59;;;;;;;25.85;16.25;;;;;;;-1.26;84.41;102596.81;5003816;28;20022;-22
2022/01/14 02:40:25;;;;;;;27.52;17.83;;;;;;;-1.27;84.03;102598.47;5008682;28;20104;-23
2022/01/14 02:42:50;;;;;;;26.90;16.50;;;;;;;-1.30;84.27;102590.53;5007503;28;20025;-23
2022/01/14 02:45:17;;;;;;;30.38;16.88;;;;;;;-1.29;83.77;102594.91;5010364;28;20400;-23
2022/01/14 02:47:43;;;;;;;32.35;17.83;;;;;;;-1.30;84.46;102593.13;5005928;28;20046;-23
2022/01/14 02:50:12;;;;;;;25.92;16.10;;;;;;;-1.32;83.82;102587.81;5006768;28;20069;-23
2022/01/14 02:52:53;;;;;;;27.00;15.85;;;;;;;-1.32;83.70;102592.09;5006917;28;20046;-21
2022/01/14 02:55:21;;;;;;;28.83;17.23;;;;;;;-1.33;83.68;102585.13;5008558;28;20101;-22
2022/01/14 02:57:50;;;;;;;26.25;16.83;;;;;;;-1.33;83.72;102590.31;5003213;28;20033;-23
2022/01/14 03:00:18;;;;;;;29.02;16.10;;;;;;;-1.34;83.76;102586.81;5009186;28;20029;-22
2022/01/14 03:02:45;;;;;;;27.90;15.65;;;;;;;-1.37;84.27;102577.94;5003842;28;20426;-23
2022/01/14 03:05:12;;;;;;;27.42;17.60;;;;;;;-1.37;84.37;102572.75;5008021;28;20346;-23
2022/01/14 03:07:40;;;;;;;30.75;17.73;;;;;;;-1.37;84.51;102577.94;5005815;28;20041;-22
2022/01/14 03:10:06;;;;;;;31.75;16.83;;;;;;;-1.38;83.74;102576.09;5007174;28;20053;-23
2022/01/14 03:12:32;;;;;;;26.52;17.23;;;;;;;-1.39;83.94;102572.66;5004625;28;20025;-23
2022/01/14 03:14:58;;;;;;;28.83;17.35;;;;;;;-1.41;84.38;102566.44;5008520;28;20475;-22
2022/01/14 03:17:23;;;;;;;28.45;16.90;;;;;;;-1.41;83.88;102571.63;5009710;28;20022;-22
2022/01/14 03:19:49;;;;;;;31.98;17.67;;;;;;;-1.42;83.91;102564.66;5008349;28;20452;-24
2022/01/14 03:22:35;;;;;;;27.83;16.52;;;;;;;-1.43;83.65;102568.91;5003517;28;20073;-24
2022/01/14 03:27:49;;;;;;;27.80;16.38;;;;;;;-1.43;84.40;102574.09;5006093;28;20037;-23
2022/01/14 03:30:14;;;;;;;29.13;16.80;;;;;;;-1.44;84.50;102581.75;5007681;28;20057;-23
2022/01/14 03:32:40;;;;;;;24.25;16.15;;;;;;;-1.45;84.36;102582.56;5007257;28;20489;-23
2022/01/14 03:35:07;;;;;;;28.80;17.58;;;;;;;-1.47;83.93;102578.97;5007335;28;20367;-22
2022/01/14 03:37:33;;;;;;;27.65;17.17;;;;;;;-1.47;84.00;102577.25;5003201;28;20026;-23
2022/01/14 03:39:58;;;;;;;30.80;18.25;;;;;;;-1.47;83.58;102573.78;5006076;28;20030;-22
2022/01/14 03:42:23;;;;;;;31.13;18.60;;;;;;;-1.49;83.90;102571.09;5007957;28;20299;-23
2022/01/14 03:44:49;;;;;;;30.17;17.30;;;;;;;-1.51;83.78;102572.66;5006289;28;20373;-24
2022/01/14 03:47:14;;;;;;;29.02;18.08;;;;;;;-1.53;83.91;102568.16;5002239;28;20061;-22
2022/01/14 03:49:39;;;;;;;28.33;17.27;;;;;;;-1.51;84.00;102569.16;5007056;28;20482;-22
2022/01/14 03:52:05;;;;;;;26.48;16.60;;;;;;;-1.53;83.99;102563.00;5005490;28;20032;-23
2022/01/14 03:54:30;;;;;;;29.45;16.33;;;;;;;-1.55;83.83;102560.28;5002192;28;20065;-22
2022/01/14 03:56:57;;;;;;;25.50;16.50;;;;;;;-1.55;83.90;102562.88;5004061;28;20018;-22
2022/01/14 03:59:22;;;;;;;27.73;17.20;;;;;;;-1.57;83.58;102560.19;4996431;28;20065;-22
2022/01/14 04:01:47;;;;;;;24.65;16.27;;;;;;;-1.57;84.04;102567.94;5000927;28;20065;-23
2022/01/14 04:04:13;;;;;;;27.10;16.90;;;;;;;-1.60;83.93;102546.13;5005783;28;20034;-21
2022/01/14 04:06:38;;;;;;;24.48;15.45;;;;;;;-1.59;83.97;102550.50;5005398;28;20105;-22
2022/01/14 04:09:03;;;;;;;26.55;15.85;;;;;;;-1.61;83.46;102558.16;5005481;28;20560;-22
2022/01/14 04:11:30;;;;;;;26.90;15.82;;;;;;;-1.62;83.88;102547.69;5006318;28;20033;-22
2022/01/14 04:14:06;;;;;;;27.08;16.30;;;;;;;-1.62;83.99;102545.13;5007191;28;20485;-22
2022/01/14 04:16:31;;;;;;;26.85;15.65;;;;;;;-1.63;83.61;102538.16;5006314;28;20581;-22
2022/01/14 04:18:57;;;;;;;23.08;14.70;;;;;;;-1.66;83.63;102527.56;5004312;28;20085;-22
2022/01/14 04:21:22;;;;;;;24.65;15.52;;;;;;;-1.66;84.07;102538.84;5003916;28;20041;-22
2022/01/14 04:23:47;;;;;;;27.27;15.73;;;;;;;-1.70;83.61;102527.34;5002846;28;20032;-20
2022/01/14 04:26:13;;;;;;;25.17;17.30;;;;;;;-1.70;83.60;102529.94;5003873;28;20029;-21
2022/01/14 04:28:38;;;;;;;25.60;17.08;;;;;;;-1.72;83.62;102528.94;5002169;28;20049;-21
2022/01/14 04:31:05;;;;;;;23.95;16.00;;;;;;;-1.72;83.19;102533.22;5004641;28;20120;-22
2022/01/14 04:33:32;;;;;;;23.45;15.32;;;;;;;-1.76;83.68;102515.66;5003046;28;20029;-22
2022/01/14 04:35:59;;;;;;;23.50;15.30;;;;;;;-1.76;83.68;102532.09;5006318;28;20029;-22
2022/01/14 04:38:25;;;;;;;24.58;15.82;;;;;;;-1.75;83.77;102522.63;5007139;28;20386;-22
2022/01/14 04:40:52;;;;;;;24.08;15.13;;;;;;;-1.78;83.30;102523.31;5006584;28;20046;-22
2022/01/14 04:43:19;;;;;;;23.73;15.63;;;;;;;-1.79;83.86;102523.22;5005037;28;20535;-21
2022/01/14 04:48:20;;;;;;;21.73;14.88;;;;;;;-1.85;83.44;102522.00;5004778;28;20100;-23
2022/01/14 04:50:46;;;;;;;25.42;15.35;;;;;;;-1.87;83.21;102517.50;5002763;28;20093;-22
2022/01/14 04:53:11;;;;;;;22.23;15.63;;;;;;;-1.87;83.23;102514.91;4998521;28;20078;-22
2022/01/14 04:55:37;;;;;;;26.13;15.98;;;;;;;-1.88;83.20;102514.00;5025194;23;20104;-21
2022/01/14 04:58:02;;;;;;;24.02;15.10;;;;;;;-1.92;83.18;102514.56;5024218;28;20056;-20
2022/01/14 05:00:28;;;;;;;21.42;14.98;;;;;;;-1.93;83.29;102507.63;5027783;28;20032;-22
2022/01/14 05:02:55;;;;;;;24.45;15.07;;;;;;;-1.95;83.42;102510.09;5025430;28;20388;-20
2022/01/14 05:05:25;;;;;;;24.88;16.63;;;;;;;-1.97;83.27;102506.47;5025557;28;20379;-23
2022/01/14 05:07:51;;;;;;;23.52;15.55;;;;;;;-1.98;83.77;102520.22;5024550;28;20603;-22
2022/01/14 05:12:48;;;;;;;21.08;15.27;;;;;;;-2.00;83.59;102506.25;5024421;28;20065;-23
2022/01/14 05:15:16;;;;;;;27.58;16.17;;;;;;;-2.00;83.38;102505.38;5024438;28;20053;-22
2022/01/14 05:17:41;;;;;;;23.05;14.93;;;;;;;-2.07;83.65;102497.16;5006102;28;20334;-23
2022/01/14 05:20:07;;;;;;;25.40;15.45;;;;;;;-2.02;83.72;102504.34;5026045;28;20104;-22
2022/01/14 05:22:33;;;;;;;22.55;14.23;;;;;;;-2.02;83.66;102507.84;5025025;28;20488;-22
2022/01/14 05:24:58;;;;;;;27.45;16.33;;;;;;;-2.09;83.90;102510.78;5024945;28;20299;-20
2022/01/14 05:27:24;;;;;;;22.85;14.05;;;;;;;-2.08;83.48;102508.28;5023253;28;20026;-21
2022/01/14 05:29:50;;;;;;;22.83;14.35;;;;;;;-2.10;83.57;102504.69;5023256;28;20028;-20
2022/01/14 05:32:15;;;;;;;21.02;14.55;;;;;;;-2.06;83.49;102508.41;5009236;28;20061;-20
2022/01/14 05:34:43;;;;;;;22.58;13.95;;;;;;;-2.07;83.73;102504.00;5024462;28;20072;-22
2022/01/14 05:37:08;;;;;;;21.55;14.15;;;;;;;-2.08;84.03;102497.03;5027991;28;20025;-21
2022/01/14 05:39:34;;;;;;;20.08;14.82;;;;;;;-2.07;84.20;102512.66;5027256;28;20103;-20
2022/01/14 05:42:00;;;;;;;22.35;14.73;;;;;;;-2.07;84.07;102509.19;5025468;28;20041;-21
2022/01/14 05:44:26;;;;;;;20.67;13.90;;;;;;;-2.08;84.05;102507.38;5027661;28;20108;-22
2022/01/14 05:46:52;;;;;;;19.38;13.35;;;;;;;-2.08;83.82;102500.53;5027431;28;20485;-22
2022/01/14 05:49:18;;;;;;;21.23;14.02;;;;;;;-2.06;83.95;102500.66;5027655;28;20107;-22
2022/01/14 05:51:44;;;;;;;18.40;12.90;;;;;;;-2.06;83.81;102486.00;5028319;28;20037;-22
2022/01/14 05:54:10;;;;;;;20.00;13.20;;;;;;;-2.08;84.08;102484.13;5026644;28;20041;-23
2022/01/14 05:56:35;;;;;;;19.13;13.52;;;;;;;-2.04;84.27;102478.38;5024829;28;20105;-23
2022/01/14 05:59:00;;;;;;;18.13;13.35;;;;;;;-2.06;84.12;102485.13;5029970;28;20104;-24
2022/01/14 06:01:26;;;;;;;19.88;13.82;;;;;;;-2.04;83.96;102488.72;5025849;28;20064;-23
2022/01/14 06:03:51;;;;;;;20.40;13.52;;;;;;;-2.02;84.30;102496.59;5031997;28;20041;-21
2022/01/14 06:06:16;;;;;;;22.05;14.27;;;;;;;-2.03;84.14;102495.72;5024552;28;20018;-22
2022/01/14 06:08:42;;;;;;;17.63;12.73;;;;;;;-2.01;84.39;102499.28;5030720;28;20525;-22
2022/01/14 06:11:07;;;;;;;19.25;13.15;;;;;;;-2.01;84.58;102483.78;5027771;28;20491;-21
2022/01/14 06:13:33;;;;;;;19.48;13.35;;;;;;;-2.01;84.16;102473.44;5026583;28;20079;-22
2022/01/14 06:15:58;;;;;;;18.25;13.23;;;;;;;-2.00;84.49;102476.94;5027548;28;20032;-23
2022/01/14 06:18:23;;;;;;;18.00;12.65;;;;;;;-1.97;84.42;102474.56;5028493;28;20067;-25
2022/01/14 06:20:50;;;;;;;18.27;13.73;;;;;;;-1.97;84.46;102470.28;5027704;28;20427;-22
2022/01/14 06:23:15;;;;;;;20.10;13.55;;;;;;;-1.96;84.04;102474.66;5026180;28;20049;-22
2022/01/14 06:25:41;;;;;;;18.85;13.30;;;;;;;-1.91;84.38;102479.28;5028249;28;20057;-25
2022/01/14 06:28:06;;;;;;;19.52;12.98;;;;;;;-1.89;84.32;102478.59;5027776;28;20030;-20
2022/01/14 06:30:32;;;;;;;19.73;13.65;;;;;;;-1.88;84.45;102482.06;5027417;28;20030;-22
2022/01/14 06:32:57;;;;;;;22.17;13.68;;;;;;;-1.86;84.04;102477.91;5026929;28;20026;-22
2022/01/14 06:35:23;;;;;;;20.90;13.63;;;;;;;-1.84;83.95;102471.13;5028023;28;20029;-23
2022/01/14 06:37:49;;;;;;;24.33;13.52;;;;;;;-1.84;84.29;102465.97;5027614;28;20049;-22
2022/01/14 06:40:14;;;;;;;19.95;13.48;;;;;;;-1.82;84.53;102475.66;5026147;28;20034;-23
2022/01/14 06:42:40;;;;;;;20.42;13.00;;;;;;;-1.79;84.47;102471.47;5025457;28;20071;-23
2022/01/14 06:45:06;;;;;;;20.08;13.95;;;;;;;-1.78;84.25;102468.09;5006526;28;20026;-20
2022/01/14 06:47:31;;;;;;;19.00;12.52;;;;;;;-1.76;84.07;102470.00;5027955;28;20275;-20
2022/01/14 06:49:57;;;;;;;19.08;12.70;;;;;;;-1.72;84.67;102471.13;5026102;28;20033;-21
2022/01/14 06:52:23;;;;;;;17.55;12.48;;;;;;;-1.73;84.74;102469.31;5027848;28;20483;-22
2022/01/14 06:54:49;;;;;;;22.52;13.02;;;;;;;-1.70;84.21;102469.53;5027309;28;20485;-22
2022/01/14 06:57:15;;;;;;;20.10;13.82;;;;;;;-1.70;84.86;102456.59;5025708;28;20025;-23
2022/01/14 06:59:40;;;;;;;24.77;15.57;;;;;;;-1.66;84.64;102461.22;5027334;28;20075;-22
2022/01/14 07:02:06;;;;;;;26.63;14.98;;;;;;;-1.63;85.15;102457.94;5028343;28;20454;-22
2022/01/14 07:04:32;;;;;;;25.92;15.77;;;;;;;-1.60;85.33;102460.75;5027102;28;20366;-20
2022/01/14 07:06:58;;;;;;;26.67;16.83;;;;;;;-1.61;85.42;102453.75;5025947;28;20117;-25
2022/01/14 07:09:23;;;;;;;28.85;16.38;;;;;;;-1.57;85.76;102441.13;5028795;28;20108;-22
2022/01/14 07:11:53;;;;;;;32.60;17.75;;;;;;;-1.54;85.47;102450.78;5026824;28;20080;-22
2022/01/14 07:14:19;;;;;;;36.40;19.75;;;;;;;-1.51;85.40;102458.78;5029229;28;20053;-20
2022/01/14 07:16:47;;;;;;;35.72;19.02;;;;;;;-1.48;86.40;102465.84;5027210;28;20025;-22
2022/01/14 07:19:19;;;;;;;35.00;19.75;;;;;;;-1.47;85.95;102459.91;5025446;28;20033;-23
2022/01/14 07:21:44;;;;;;;36.60;19.85;;;;;;;-1.44;85.81;102458.41;5027100;28;20033;-23
2022/01/14 07:24:10;;;;;;;37.20;20.25;;;;;;;-1.42;86.23;102464.59;5027217;28;20408;-23
2022/01/14 07:26:36;;;;;;;40.35;21.10;;;;;;;-1.38;86.39;102462.19;5028332;28;20053;-21
2022/01/14 07:29:01;;;;;;;43.83;22.05;;;;;;;-1.34;86.74;102484.91;5027705;28;20032;-23
2022/01/14 07:31:28;;;;;;;45.90;21.27;;;;;;;-1.31;86.79;102487.72;5027110;28;20505;-22
2022/01/14 07:33:53;;;;;;;39.15;21.58;;;;;;;-1.28;86.16;102485.34;5026828;28;20022;-22
2022/01/14 07:36:21;;;;;;;47.55;22.65;;;;;;;-1.26;86.99;102494.13;5025051;28;20451;-22
2022/01/14 07:38:47;;;;;;;47.95;22.05;;;;;;;-1.22;86.95;102505.59;5023944;28;20504;-21
2022/01/14 07:41:12;;;;;;;42.67;21.30;;;;;;;-1.21;87.36;102497.94;5026847;28;20061;-21
2022/01/14 07:43:37;;;;;;;43.67;22.65;;;;;;;-1.19;86.30;102496.38;5026007;28;20343;-20
2022/01/14 07:49:25;;;;;;;45.83;22.92;;;;;;;-1.11;86.82;102511.50;5026347;28;20056;-21
2022/01/14 07:51:50;;;;;;;40.65;20.33;;;;;;;-1.09;86.59;102516.03;5027488;28;20025;-22
2022/01/14 07:54:16;;;;;;;48.10;23.13;;;;;;;-1.06;86.45;102510.16;5023400;28;20041;-20
2022/01/14 07:56:45;;;;;;;42.33;22.80;;;;;;;-1.04;86.74;102522.41;5026779;28;20033;-22
2022/01/14 07:59:17;;;;;;;39.92;21.65;;;;;;;-1.02;86.82;102511.25;5024894;28;20038;-22
2022/01/14 08:01:44;;;;;;;41.70;22.30;;;;;;;-1.00;87.13;102510.53;5026095;28;20079;-20
2022/01/14 08:04:10;;;;;;;39.88;20.63;;;;;;;-0.99;87.08;102507.19;5023323;28;20486;-22
2022/01/14 08:06:43;;;;;;;39.53;22.15;;;;;;;-0.95;86.29;102518.63;5024263;28;20068;-22
2022/01/14 08:09:09;;;;;;;45.55;21.77;;;;;;;-0.95;86.99;102522.13;5025384;28;20389;-22
2022/01/14 08:11:34;;;;;;;42.13;21.23;;;;;;;-0.93;86.56;102519.66;5026802;28;20040;-22
2022/01/14 08:13:59;;;;;;;41.95;21.23;;;;;;;-0.89;85.97;102520.75;5023746;28;20051;-23
2022/01/14 08:16:28;;;;;;;43.17;22.10;;;;;;;-0.88;86.53;102523.44;5027749;28;20017;-23
2022/01/14 08:18:53;;;;;;;46.28;21.73;;;;;;;-0.88;86.40;102517.34;5025819;28;20041;-22
2022/01/14 08:21:18;;;;;;;51.38;25.50;;;;;;;-0.83;86.33;102516.88;5023129;28;20041;-22
2022/01/14 08:23:44;;;;;;;46.25;22.67;;;;;;;-0.81;85.88;102509.19;5023280;28;20448;-22
2022/01/14 08:26:09;;;;;;;42.03;20.88;;;;;;;-0.79;86.18;102510.22;5024221;28;20029;-22
2022/01/14 08:28:34;;;;;;;43.00;22.77;;;;;;;-0.75;86.03;102511.31;5026946;28;20052;-22
2022/01/14 08:31:00;;;;;;;43.70;21.60;;;;;;;-0.73;86.44;102515.78;5026216;28;20021;-21
2022/01/14 08:33:25;;;;;;;40.92;21.25;;;;;;;-0.73;86.68;102513.19;5024292;28;20021;-22
2022/01/14 08:35:50;;;;;;;48.40;23.83;;;;;;;-0.71;86.24;102522.00;5025238;28;20032;-22
2022/01/14 08:38:16;;;;;;;40.75;21.75;;;;;;;-0.70;86.00;102525.50;5026954;28;20036;-22
2022/01/14 08:40:42;;;;;;;45.60;21.95;;;;;;;-0.69;86.11;102535.06;5026590;28;20865;-22
2022/01/14 08:43:07;;;;;;;45.47;21.67;;;;;;;-0.65;86.60;102548.34;5021547;28;20026;-22
2022/01/14 08:45:33;;;;;;;39.65;21.27;;;;;;;-0.62;86.16;102551.91;5026570;28;20108;-22
2022/01/14 08:47:59;;;;;;;40.38;21.98;;;;;;;-0.61;86.46;102532.97;5027607;28;20025;-22
2022/01/14 08:50:29;;;;;;;43.67;22.35;;;;;;;-0.60;86.13;102539.97;5023593;28;20057;-22
2022/01/14 08:52:54;;;;;;;44.03;22.58;;;;;;;-0.62;86.25;102531.19;5026518;28;20044;-22
2022/01/14 08:55:21;;;;;;;42.60;20.58;;;;;;;-0.58;86.26;102538.34;5023489;28;20384;-21
2022/01/14 08:57:48;;;;;;;38.72;22.08;;;;;;;-0.54;86.20;102545.53;5023942;28;20136;-22
2022/01/14 09:00:16;;;;;;;40.88;21.65;;;;;;;-0.55;85.97;102531.69;5026667;28;20112;-22
2022/01/14 09:02:41;;;;;;;43.38;20.92;;;;;;;-0.51;86.39;102535.38;5026413;28;20033;-21
2022/01/14 09:05:07;;;;;;;40.92;21.23;;;;;;;-0.48;86.23;102529.50;5025731;28;20549;-22
2022/01/14 09:07:32;;;;;;;37.42;20.52;;;;;;;-0.46;86.09;102544.38;5029116;28;20029;-22
2022/01/14 09:09:58;;;;;;;45.30;22.13;;;;;;;-0.45;86.33;102521.94;5029743;28;20395;-22
2022/01/14 09:12:23;;;;;;;48.15;23.38;;;;;;;-0.42;86.44;102519.53;5030471;28;20486;-21
2022/01/14 09:14:49;;;;;;;38.35;20.92;;;;;;;-0.40;86.55;102507.59;5028320;28;20021;-23
2022/01/14 09:17:16;;;;;;;38.45;19.48;;;;;;;-0.39;86.45;102502.47;5029453;28;20152;-22
2022/01/14 09:19:41;;;;;;;36.65;20.83;;;;;;;-0.37;86.50;102512.06;5028544;28;20106;-22
2022/01/14 09:22:07;;;;;;;42.88;22.08;;;;;;;-0.34;86.50;102518.34;5029776;28;20486;-22
2022/01/14 09:24:33;;;;;;;39.70;21.25;;;;;;;-0.31;86.73;102515.06;5029319;28;20492;-22
2022/01/14 09:26:59;;;;;;;41.10;20.60;;;;;;;-0.31;86.72;102515.06;5029193;28;20034;-22
2022/01/14 09:29:24;;;;;;;40.67;21.35;;;;;;;-0.29;86.49;102518.66;5030274;28;20033;-23
2022/01/14 09:31:49;;;;;;;39.75;21.20;;;;;;;-0.28;86.24;102512.66;5025582;28;20717;-22
2022/01/14 09:34:15;;;;;;;37.33;20.33;;;;;;;-0.26;86.12;102516.28;5026683;28;20124;-21
2022/01/14 09:36:43;;;;;;;35.08;20.52;;;;;;;-0.22;86.59;102510.47;5027882;28;20021;-21
2022/01/14 09:39:09;;;;;;;43.30;21.77;;;;;;;-0.17;86.80;102505.59;5028260;28;20492;-23
2022/01/14 09:41:34;;;;;;;39.38;19.85;;;;;;;-0.11;87.48;102507.69;5029401;28;20414;-22
2022/01/14 09:44:02;;;;;;;39.80;20.88;;;;;;;-0.10;87.56;102506.88;5025067;28;20033;-23
2022/01/14 09:46:27;;;;;;;40.90;20.98;;;;;;;-0.06;87.61;102503.69;5027255;28;20052;-22
2022/01/14 09:48:52;;;;;;;45.35;22.02;;;;;;;0.01;88.40;102503.28;5029387;28;20026;-22
2022/01/14 09:51:18;;;;;;;38.72;21.05;;;;;;;-0.02;87.85;102505.69;5027387;28;20071;-22
2022/01/14 09:53:43;;;;;;;42.53;22.77;;;;;;;0.03;88.31;102498.19;5026592;28;20030;-22
2022/01/14 09:56:08;;;;;;;48.83;25.85;;;;;;;0.05;87.78;102496.59;5023557;28;20069;-22
2022/01/14 09:58:40;;;;;;;52.03;29.85;;;;;;;0.09;87.90;102494.28;5024219;28;20460;-22
2022/01/14 10:01:29;;;;;;;48.03;27.05;;;;;;;0.12;87.91;102502.28;5029261;28;20504;-22
2022/01/14 10:07:16;;;;;;;71.30;39.53;;;;;;;0.26;89.11;102499.63;5025423;28;20095;-22
2022/01/14 10:09:44;;;;;;;73.53;41.97;;;;;;;0.28;88.98;102499.75;5026983;28;20485;-22
2022/01/14 10:12:17;;;;;;;75.55;45.33;;;;;;;0.28;88.79;102490.25;5029565;28;20028;-22
2022/01/14 10:14:57;;;;;;;71.38;42.60;;;;;;;0.30;88.02;102496.44;5028192;28;20029;-22
2022/01/14 10:17:23;;;;;;;77.28;40.75;;;;;;;0.34;88.10;102501.00;5026666;28;20018;-22
2022/01/14 10:19:49;;;;;;;74.45;43.30;;;;;;;0.38;88.69;102490.03;5024236;28;20025;-21
2022/01/14 10:22:26;;;;;;;80.82;46.30;;;;;;;0.42;88.91;102483.34;5024695;28;20032;-23
2022/01/14 10:24:57;;;;;;;76.90;43.67;;;;;;;0.43;88.03;102484.25;5022561;28;20058;-22
2022/01/14 10:27:39;;;;;;;63.88;40.45;;;;;;;0.48;88.67;102477.63;5022423;28;20116;-21
2022/01/14 10:30:24;;;;;;;64.55;35.90;;;;;;;0.47;88.36;102476.72;5022662;28;20040;-22
2022/01/14 10:32:59;;;;;;;58.50;32.63;;;;;;;0.54;88.65;102487.50;5024618;28;20497;-23
2022/01/14 10:35:27;;;;;;;52.30;29.33;;;;;;;0.59;89.11;102481.78;5024484;28;20040;-22
2022/01/14 10:37:56;;;;;;;48.50;27.42;;;;;;;0.61;89.32;102459.41;5025161;28;20018;-22
2022/01/14 10:40:23;;;;;;;47.08;26.33;;;;;;;0.63;88.68;102460.38;5027266;28;20029;-28
2022/01/14 10:42:51;;;;;;;40.80;22.75;;;;;;;0.72;88.89;102466.94;5025568;28;20045;-22
2022/01/14 10:45:25;;;;;;;37.22;22.85;;;;;;;0.73;88.55;102466.16;5023925;28;20021;-22
2022/01/14 10:47:57;;;;;;;39.65;20.92;;;;;;;0.78;88.70;102464.72;5024900;28;20080;-22
2022/01/14 10:50:55;;;;;;;38.65;21.90;;;;;;;0.82;89.04;102464.09;5026377;28;20516;-23
2022/01/14 10:53:30;;;;;;;35.25;20.27;;;;;;;0.86;89.33;102463.47;5027531;28;20041;-22
2022/01/14 10:56:11;;;;;;;37.78;20.58;;;;;;;0.88;89.18;102467.06;5061963;23;20049;-26
2022/01/14 10:58:41;;;;;;;37.05;18.65;;;;;;;0.96;89.62;102466.59;5026168;28;20086;-24
2022/01/14 11:01:14;;;;;;;32.67;18.38;;;;;;;0.96;88.93;102469.19;5008992;28;20041;-23
2022/01/14 11:03:48;;;;;;;37.58;19.25;;;;;;;0.97;88.48;102474.50;5028116;28;20508;-24
2022/01/14 11:06:23;;;;;;;33.65;19.33;;;;;;;1.01;88.54;102475.59;5026461;28;20081;-25
2022/01/14 11:09:01;;;;;;;29.98;16.98;;;;;;;1.02;88.76;102473.09;5027769;28;20040;-25
2022/01/14 11:11:47;;;;;;;31.17;18.00;;;;;;;1.07;88.53;102456.84;5026850;28;20108;-25
2022/01/14 11:14:16;;;;;;;31.73;18.15;;;;;;;1.09;88.39;102474.34;5026454;28;20037;-24
2022/01/14 11:16:44;;;;;;;37.40;19.02;;;;;;;1.10;88.34;102481.31;5026226;28;20052;-25
2022/01/14 11:19:09;;;;;;;30.55;17.33;;;;;;;1.12;88.50;102484.91;5025422;28;20080;-26
2022/01/14 11:24:30;;;;;;;33.47;17.73;;;;;;;1.18;88.02;102483.47;5022643;28;20064;-26
2022/01/14 11:27:03;;;;;;;32.40;18.25;;;;;;;1.21;88.11;102481.97;5025484;28;20040;-25
2022/01/14 11:29:32;;;;;;;31.73;18.67;;;;;;;1.22;87.98;102482.84;5021501;28;20469;-25
2022/01/14 11:31:59;;;;;;;34.58;18.27;;;;;;;1.25;88.00;102485.63;5026091;28;20469;-26
2022/01/14 11:34:30;;;;;;;35.05;18.10;;;;;;;1.27;87.92;102484.03;5027335;28;20030;-26
2022/01/14 11:36:58;;;;;;;32.90;18.65;;;;;;;1.28;88.26;102475.41;5028841;28;20048;-25
2022/01/14 11:39:26;;;;;;;29.77;17.17;;;;;;;1.30;87.77;102473.78;5009097;28;20036;-25
2022/01/14 11:42:04;;;;;;;29.48;18.15;;;;;;;1.32;88.27;102473.88;5024571;28;20516;-25
2022/01/14 11:44:41;;;;;;;34.25;19.35;;;;;;;1.35;87.77;102468.88;5021945;28;20041;-25
2022/01/14 11:47:08;;;;;;;31.52;18.52;;;;;;;1.35;87.68;102459.38;5026828;28;20057;-26